createdAt,value
2019-05-17T00:00:47.448Z,28.25
2019-05-17T00:03:17.059Z,29.37
2019-05-17T00:05:46.588Z,26.80
2019-05-17T00:08:16.462Z,25.12
2019-05-17T00:10:46.528Z,24.12
2019-05-17T00:13:17.224Z,24.32
2019-05-17T00:15:47.241Z,27.32
2019-05-17T00:18:16.952Z,23.95
2019-05-17T00:20:46.559Z,25.92
2019-05-17T00:23:14.689Z,23.73
2019-05-17T00:25:43.266Z,25.05
2019-05-17T00:28:11.459Z,25.97
2019-05-17T00:30:39.702Z,26.30
2019-05-17T00:33:08.142Z,25.40
2019-05-17T00:35:37.656Z,25.77
2019-05-17T00:38:06.655Z,25.68
2019-05-17T00:40:36.604Z,24.15
2019-05-17T00:43:06.767Z,25.17
2019-05-17T00:45:37.373Z,26.05
2019-05-17T00:48:06.527Z,29.00
2019-05-17T00:50:37.523Z,28.27
2019-05-17T00:53:06.933Z,27.45
2019-05-17T00:55:36.303Z,26.93
2019-05-17T00:58:06.444Z,27.32
2019-05-17T01:00:37.239Z,25.97
2019-05-17T01:03:06.796Z,26.25
2019-05-17T01:05:36.655Z,26.97
2019-05-17T01:08:06.912Z,27.32
2019-05-17T01:10:36.680Z,26.97
2019-05-17T01:13:06.535Z,27.93
2019-05-17T01:15:36.636Z,27.07
2019-05-17T01:18:04.112Z,27.05
2019-05-17T01:20:32.356Z,26.10
2019-05-17T01:23:00.548Z,25.30
2019-05-17T01:25:28.784Z,26.05
2019-05-17T01:27:56.984Z,26.00
2019-05-17T01:30:26.608Z,30.15
2019-05-17T01:32:57.071Z,26.90
2019-05-17T01:35:26.612Z,30.25
2019-05-17T01:37:56.481Z,25.23
2019-05-17T01:40:26.417Z,25.85
2019-05-17T01:42:54.795Z,28.45
2019-05-17T01:45:22.988Z,27.30
2019-05-17T01:47:51.196Z,26.90
2019-05-17T01:50:19.410Z,29.25
2019-05-17T01:52:47.608Z,27.60
2019-05-17T01:55:17.404Z,26.55
2019-05-17T01:57:47.624Z,29.75
2019-05-17T02:00:17.584Z,28.10
2019-05-17T02:02:47.345Z,28.67
2019-05-17T02:05:17.285Z,26.80
2019-05-17T02:07:46.550Z,27.77
2019-05-17T02:10:16.804Z,25.85
2019-05-17T02:12:48.660Z,28.10
2019-05-17T02:15:16.473Z,27.37
2019-05-17T02:17:46.938Z,26.87
2019-05-17T02:20:16.865Z,29.12
2019-05-17T02:22:47.071Z,27.40
2019-05-17T02:25:16.774Z,26.15
2019-05-17T02:27:44.856Z,27.35
2019-05-17T02:30:14.371Z,28.45
2019-05-17T02:32:43.376Z,27.02
2019-05-17T02:35:14.286Z,25.80
2019-05-17T02:37:43.260Z,26.35
2019-05-17T02:40:14.662Z,26.65
2019-05-17T02:42:43.012Z,29.70
2019-05-17T02:45:13.351Z,27.75
2019-05-17T02:47:43.737Z,27.58
2019-05-17T02:50:12.914Z,27.50
2019-05-17T02:52:43.487Z,26.20
2019-05-17T02:55:12.856Z,27.15
2019-05-17T02:57:43.211Z,29.50
2019-05-17T03:00:13.319Z,34.03
2019-05-17T03:02:43.368Z,79.45
2019-05-17T03:05:12.798Z,46.25
2019-05-17T03:07:43.808Z,38.88
2019-05-17T03:10:22.188Z,29.98
2019-05-17T03:12:43.928Z,29.37
2019-05-17T03:15:12.966Z,26.85
2019-05-17T03:17:43.394Z,27.27
2019-05-17T03:20:12.876Z,27.05
2019-05-17T03:22:43.926Z,26.30
2019-05-17T03:25:13.686Z,27.90
2019-05-17T03:27:42.816Z,25.43
2019-05-17T03:30:16.803Z,27.48
2019-05-17T03:32:46.347Z,27.00
2019-05-17T03:35:16.026Z,26.85
2019-05-17T03:37:43.449Z,27.30
2019-05-17T03:40:24.903Z,25.70
2019-05-17T03:42:42.894Z,25.45
2019-05-17T03:45:13.672Z,27.10
2019-05-17T03:47:43.899Z,24.60
2019-05-17T03:50:13.235Z,25.95
2019-05-17T03:52:43.797Z,26.30
2019-05-17T03:55:13.151Z,25.62
2019-05-17T03:57:43.641Z,24.55
2019-05-17T04:00:13.089Z,26.10
2019-05-17T04:02:43.815Z,25.65
2019-05-17T04:05:12.502Z,32.85
2019-05-17T04:07:42.969Z,33.10
2019-05-17T04:10:09.954Z,32.33
2019-05-17T04:12:38.141Z,30.50
2019-05-17T04:15:06.375Z,29.63
2019-05-17T04:17:34.614Z,29.95
2019-05-17T04:20:03.818Z,27.60
2019-05-17T04:22:33.111Z,26.20
2019-05-17T04:25:03.021Z,28.85
2019-05-17T04:27:32.706Z,27.82
2019-05-17T04:30:03.710Z,28.20
2019-05-17T04:32:33.085Z,27.42
2019-05-17T04:35:03.639Z,30.88
2019-05-17T04:37:33.957Z,32.33
2019-05-17T04:40:03.549Z,35.23
2019-05-17T04:42:33.056Z,33.40
2019-05-17T04:45:03.808Z,30.80
2019-05-17T04:47:33.207Z,30.65
2019-05-17T04:50:03.798Z,30.75
2019-05-17T04:52:33.450Z,28.27
2019-05-17T04:55:03.661Z,33.48
2019-05-17T04:57:32.523Z,30.80
2019-05-17T05:00:03.820Z,35.08
2019-05-17T05:02:32.943Z,32.38
2019-05-17T05:05:03.242Z,30.88
2019-05-17T05:07:33.321Z,32.55
2019-05-17T05:10:03.006Z,30.72
2019-05-17T05:12:33.273Z,31.10
2019-05-17T05:15:03.202Z,37.80
2019-05-17T05:17:32.679Z,32.95
2019-05-17T05:20:02.511Z,32.78
2019-05-17T05:22:32.743Z,35.68
2019-05-17T05:25:01.946Z,33.85
2019-05-17T05:27:31.583Z,35.75
2019-05-17T05:29:59.609Z,36.63
2019-05-17T05:32:27.808Z,31.23
2019-05-17T05:34:56.053Z,31.57
2019-05-17T05:37:24.250Z,31.70
2019-05-17T05:39:54.676Z,31.73
2019-05-17T05:42:22.418Z,29.50
2019-05-17T05:44:52.224Z,30.92
2019-05-17T05:47:22.200Z,34.10
2019-05-17T05:49:52.058Z,32.78
2019-05-17T05:52:21.836Z,29.35
2019-05-17T05:54:52.030Z,30.15
2019-05-17T05:57:21.893Z,29.75
2019-05-17T05:59:51.786Z,30.70
2019-05-17T06:02:21.772Z,32.17
2019-05-17T06:04:51.848Z,29.37
2019-05-17T06:07:21.662Z,30.23
2019-05-17T06:09:51.788Z,31.17
2019-05-17T06:12:24.834Z,32.30
2019-05-17T06:14:52.229Z,30.90
2019-05-17T06:17:21.631Z,28.85
2019-05-17T06:19:51.702Z,28.35
2019-05-17T06:22:21.996Z,30.05
2019-05-17T06:24:52.035Z,29.42
2019-05-17T06:27:21.567Z,34.03
2019-05-17T06:29:51.515Z,32.45
2019-05-17T06:32:22.542Z,30.80
2019-05-17T06:34:51.522Z,29.10
2019-05-17T06:37:22.185Z,26.68
2019-05-17T06:39:49.756Z,25.25
2019-05-17T06:42:17.998Z,28.60
2019-05-17T06:44:46.205Z,25.90
2019-05-17T06:47:14.404Z,26.68
2019-05-17T06:49:42.612Z,27.82
2019-05-17T06:52:11.641Z,24.27
2019-05-17T06:54:41.808Z,24.18
2019-05-17T06:57:09.869Z,23.55
2019-05-17T06:59:38.110Z,20.95
2019-05-17T07:02:06.376Z,22.85
2019-05-17T07:04:34.588Z,20.77
2019-05-17T07:07:20.836Z,21.90
2019-05-17T07:09:49.700Z,20.17
2019-05-17T07:12:20.284Z,19.73
2019-05-17T07:14:47.962Z,17.02
2019-05-17T07:17:16.169Z,17.92
2019-05-17T07:19:44.406Z,18.80
2019-05-17T07:22:12.609Z,20.12
2019-05-17T07:24:40.817Z,16.02
2019-05-17T07:27:10.001Z,18.23
2019-05-17T07:29:40.199Z,14.55
2019-05-17T07:32:09.808Z,16.30
2019-05-17T07:34:40.100Z,15.83
2019-05-17T07:37:10.189Z,16.37
2019-05-17T07:39:40.090Z,16.60
2019-05-17T07:42:09.651Z,18.40
2019-05-17T07:44:40.146Z,14.68
2019-05-17T07:47:09.703Z,16.37
2019-05-17T07:49:40.336Z,12.93
2019-05-17T07:52:10.198Z,15.83
2019-05-17T07:54:39.910Z,14.78
2019-05-17T07:57:10.172Z,15.18
2019-05-17T07:59:39.738Z,16.05
2019-05-17T08:02:07.680Z,14.13
2019-05-17T08:04:35.889Z,12.07
2019-05-17T08:07:04.172Z,14.05
2019-05-17T08:09:32.377Z,13.03
2019-05-17T08:12:00.622Z,14.83
2019-05-17T08:14:32.924Z,15.35
2019-05-17T08:16:59.868Z,15.30
2019-05-17T08:19:29.887Z,13.88
2019-05-17T08:21:59.660Z,14.90
2019-05-17T08:24:30.205Z,16.65
2019-05-17T08:26:59.951Z,13.90
2019-05-17T08:29:29.737Z,12.23
2019-05-17T08:31:57.756Z,15.63
2019-05-17T08:34:25.990Z,13.08
2019-05-17T08:36:54.198Z,13.55
2019-05-17T08:39:22.397Z,14.87
2019-05-17T08:41:50.605Z,13.72
2019-05-17T08:44:19.265Z,10.85
2019-05-17T08:46:47.513Z,14.43
2019-05-17T08:49:15.761Z,15.93
2019-05-17T08:51:43.960Z,14.70
2019-05-17T08:54:12.156Z,13.48
2019-05-17T08:56:40.526Z,16.48
2019-05-17T08:59:09.599Z,11.28
2019-05-17T09:01:39.227Z,12.05
2019-05-17T09:04:09.296Z,13.32
2019-05-17T09:06:39.564Z,11.68
2019-05-17T09:09:09.843Z,14.93
2019-05-17T09:11:39.566Z,11.30
2019-05-17T09:14:07.476Z,11.20
2019-05-17T09:16:35.684Z,8.88
2019-05-17T09:19:03.885Z,11.05
2019-05-17T09:21:32.084Z,12.18
2019-05-17T09:24:00.288Z,13.58
2019-05-17T09:26:29.436Z,9.63
2019-05-17T09:28:57.672Z,11.40
2019-05-17T09:31:25.895Z,12.50
2019-05-17T09:33:54.118Z,10.15
2019-05-17T09:36:22.320Z,8.53
2019-05-17T09:38:50.549Z,9.83
2019-05-17T09:41:20.060Z,10.05
2019-05-17T09:43:49.674Z,10.25
2019-05-17T09:46:19.619Z,10.78
2019-05-17T09:48:50.315Z,8.85
2019-05-17T09:51:19.627Z,11.43
2019-05-17T09:53:49.580Z,7.60
2019-05-17T09:56:20.449Z,9.48
2019-05-17T09:58:49.513Z,8.90
2019-05-17T10:01:19.613Z,8.68
2019-05-17T10:03:50.383Z,8.53
2019-05-17T10:06:20.062Z,9.75
2019-05-17T10:08:49.481Z,9.28
2019-05-17T10:11:20.085Z,9.83
2019-05-17T10:13:49.513Z,11.28
2019-05-17T10:16:20.051Z,6.40
2019-05-17T10:18:47.649Z,7.50
2019-05-17T10:21:15.853Z,7.10
2019-05-17T10:23:44.060Z,8.45
2019-05-17T10:26:12.256Z,5.40
2019-05-17T10:28:40.513Z,5.87
2019-05-17T10:31:11.292Z,7.50
2019-05-17T10:33:40.114Z,5.03
2019-05-17T10:36:08.409Z,6.22
2019-05-17T10:38:36.617Z,3.27
2019-05-17T10:41:04.846Z,4.70
2019-05-17T10:43:33.045Z,4.60
2019-05-17T10:46:01.244Z,4.47
2019-05-17T10:48:30.092Z,3.67
2019-05-17T10:51:00.415Z,4.70
2019-05-17T10:53:29.731Z,4.87
2019-05-17T10:56:00.459Z,6.65
2019-05-17T10:58:29.691Z,4.65
2019-05-17T11:01:00.584Z,4.67
2019-05-17T11:03:29.607Z,4.53
2019-05-17T11:05:59.750Z,6.03
2019-05-17T11:08:27.917Z,4.33
2019-05-17T11:10:56.150Z,5.25
2019-05-17T11:13:24.353Z,4.70
2019-05-17T11:15:52.629Z,3.37
2019-05-17T11:18:20.894Z,3.72
2019-05-17T11:20:49.161Z,5.50
2019-05-17T11:23:17.367Z,3.77
2019-05-17T11:25:46.603Z,4.62
2019-05-17T11:28:15.040Z,3.42
2019-05-17T11:30:43.881Z,3.17
2019-05-17T11:33:12.085Z,3.65
2019-05-17T11:35:40.280Z,2.83
2019-05-17T11:38:08.519Z,5.80
2019-05-17T11:40:36.712Z,4.40
2019-05-17T11:43:04.917Z,3.50
2019-05-17T11:45:33.174Z,3.60
2019-05-17T11:48:01.436Z,2.27
2019-05-17T11:50:29.631Z,3.20
2019-05-17T11:52:57.827Z,3.50
2019-05-17T11:55:26.024Z,3.58
2019-05-17T11:57:54.241Z,3.05
2019-05-17T12:00:22.433Z,3.20
2019-05-17T12:02:50.632Z,3.52
2019-05-17T12:05:18.832Z,4.22
2019-05-17T12:07:47.034Z,5.55
2019-05-17T12:10:15.232Z,5.15
2019-05-17T12:12:43.433Z,7.20
2019-05-17T12:15:11.631Z,3.87
2019-05-17T12:17:39.833Z,2.50
2019-05-17T12:20:09.146Z,4.53
2019-05-17T12:22:37.336Z,5.15
2019-05-17T12:25:06.154Z,4.67
2019-05-17T12:27:34.348Z,4.10
2019-05-17T12:30:03.142Z,3.67
2019-05-17T12:32:31.323Z,4.47
2019-05-17T12:34:59.536Z,3.58
2019-05-17T12:37:27.766Z,4.72
2019-05-17T12:39:55.968Z,4.17
2019-05-17T12:42:24.168Z,4.80
2019-05-17T12:44:52.372Z,4.22
2019-05-17T12:47:20.607Z,4.08
2019-05-17T12:49:48.801Z,3.33
2019-05-17T12:52:17.001Z,4.90
2019-05-17T12:54:45.216Z,4.15
2019-05-17T12:57:13.447Z,4.95
2019-05-17T12:59:41.640Z,3.72
2019-05-17T13:02:12.248Z,6.12
2019-05-17T13:04:39.767Z,4.75
2019-05-17T13:07:07.964Z,2.62
2019-05-17T13:09:36.206Z,3.30
2019-05-17T13:12:04.400Z,4.35
2019-05-17T13:14:32.600Z,3.30
2019-05-17T13:17:00.804Z,2.30
2019-05-17T13:19:29.054Z,2.20
2019-05-17T13:21:57.241Z,3.05
2019-05-17T13:24:25.494Z,5.25
2019-05-17T13:26:53.689Z,3.72
2019-05-17T13:29:21.888Z,2.77
2019-05-17T13:31:50.096Z,3.77
2019-05-17T13:34:18.293Z,4.33
2019-05-17T13:36:46.504Z,3.35
2019-05-17T13:39:14.698Z,7.20
2019-05-17T13:41:42.900Z,2.20
2019-05-17T13:44:11.115Z,4.30
2019-05-17T13:46:39.305Z,2.02
2019-05-17T13:49:07.505Z,3.75
2019-05-17T13:51:35.709Z,2.72
2019-05-17T13:54:03.983Z,3.22
2019-05-17T13:56:32.214Z,3.40
2019-05-17T13:59:00.413Z,2.22
2019-05-17T14:01:28.613Z,2.15
2019-05-17T14:03:56.848Z,2.27
2019-05-17T14:06:25.044Z,4.60
2019-05-17T14:08:53.279Z,1.70
2019-05-17T14:11:21.474Z,4.00
2019-05-17T14:13:49.702Z,2.60
2019-05-17T14:16:17.931Z,3.05
2019-05-17T14:18:46.154Z,3.10
2019-05-17T14:21:14.387Z,2.17
2019-05-17T14:23:42.594Z,3.10
2019-05-17T14:26:10.797Z,1.77
2019-05-17T14:28:38.988Z,2.75
2019-05-17T14:31:07.234Z,4.28
2019-05-17T14:33:35.422Z,2.75
2019-05-17T14:36:03.629Z,4.10
2019-05-17T14:38:31.836Z,5.40
2019-05-17T14:41:06.336Z,2.92
2019-05-17T14:43:31.909Z,1.65
2019-05-17T14:45:59.920Z,1.72
2019-05-17T14:48:28.117Z,2.70
2019-05-17T14:50:56.330Z,3.20
2019-05-17T14:53:24.528Z,3.45
2019-05-17T14:55:52.768Z,2.10
2019-05-17T14:58:20.966Z,3.77
2019-05-17T15:00:49.169Z,3.42
2019-05-17T15:03:17.409Z,2.50
2019-05-17T15:05:45.607Z,3.50
2019-05-17T15:08:13.804Z,3.85
2019-05-17T15:10:42.066Z,2.58
2019-05-17T15:13:10.322Z,2.58
2019-05-17T15:15:38.550Z,3.47
2019-05-17T15:18:09.402Z,2.85
2019-05-17T15:20:36.669Z,4.15
2019-05-17T15:23:04.888Z,2.17
2019-05-17T15:25:33.120Z,3.33
2019-05-17T15:28:01.324Z,4.67
2019-05-17T15:30:29.525Z,2.37
2019-05-17T15:32:57.729Z,3.25
2019-05-17T15:35:25.928Z,5.20
2019-05-17T15:37:54.139Z,2.40
2019-05-17T15:40:22.337Z,4.92
2019-05-17T15:42:50.626Z,2.35
2019-05-17T15:45:18.848Z,4.22
2019-05-17T15:47:47.053Z,2.87
2019-05-17T15:50:15.283Z,3.90
2019-05-17T15:52:43.510Z,2.70
2019-05-17T15:55:11.703Z,4.10
2019-05-17T15:57:39.910Z,3.40
2019-05-17T16:00:08.198Z,3.67
2019-05-17T16:02:36.441Z,4.40
2019-05-17T16:05:05.003Z,5.92
2019-05-17T16:07:33.204Z,5.00
2019-05-17T16:10:01.409Z,3.52
2019-05-17T16:12:29.612Z,2.50
2019-05-17T16:14:57.850Z,2.42
2019-05-17T16:17:26.053Z,3.72
2019-05-17T16:19:54.253Z,3.12
2019-05-17T16:22:22.489Z,2.05
2019-05-17T16:24:50.689Z,2.12
2019-05-17T16:27:18.888Z,3.15
2019-05-17T16:29:47.190Z,5.95
2019-05-17T16:32:15.438Z,2.90
2019-05-17T16:34:43.628Z,3.00
2019-05-17T16:37:11.842Z,2.22
2019-05-17T16:39:40.049Z,3.02
2019-05-17T16:42:08.252Z,3.10
2019-05-17T16:44:36.494Z,3.30
2019-05-17T16:47:04.695Z,2.52
2019-05-17T16:49:32.943Z,3.52
2019-05-17T16:52:01.141Z,4.90
2019-05-17T16:54:29.356Z,2.70
2019-05-17T16:56:57.605Z,2.40
2019-05-17T16:59:25.907Z,3.80
2019-05-17T17:01:54.121Z,4.03
2019-05-17T17:04:22.323Z,2.20
2019-05-17T17:06:50.530Z,4.47
2019-05-17T17:09:18.740Z,1.30
2019-05-17T17:11:46.955Z,1.95
2019-05-17T17:14:15.155Z,2.10
2019-05-17T17:16:43.460Z,2.55
2019-05-17T17:19:11.718Z,3.72
2019-05-17T17:21:39.920Z,2.92
2019-05-17T17:24:08.120Z,3.08
2019-05-17T17:26:36.328Z,2.87
2019-05-17T17:29:04.612Z,2.25
2019-05-17T17:31:32.809Z,2.83
2019-05-17T17:34:01.052Z,2.60
2019-05-17T17:36:29.277Z,4.72
2019-05-17T17:38:57.517Z,2.45
2019-05-17T17:41:26.620Z,3.72
2019-05-17T17:43:58.711Z,2.87
2019-05-17T17:46:25.017Z,3.17
2019-05-17T17:48:53.250Z,2.58
2019-05-17T17:51:21.527Z,4.55
2019-05-17T17:53:49.784Z,2.25
2019-05-17T17:56:17.981Z,2.33
2019-05-17T17:58:46.219Z,3.27
2019-05-17T18:01:14.423Z,2.95
2019-05-17T18:03:42.663Z,2.80
2019-05-17T18:06:10.857Z,3.25
2019-05-17T18:08:39.061Z,5.97
2019-05-17T18:11:07.274Z,10.03
2019-05-17T18:13:35.473Z,4.22
2019-05-17T18:16:03.723Z,4.97
2019-05-17T18:18:31.942Z,5.55
2019-05-17T18:21:00.157Z,3.42
2019-05-17T18:23:28.381Z,3.17
2019-05-17T18:25:56.605Z,2.77
2019-05-17T18:28:24.818Z,2.50
2019-05-17T18:30:53.033Z,7.42
2019-05-17T18:33:21.297Z,3.87
2019-05-17T18:35:49.542Z,2.55
2019-05-17T18:38:18.677Z,3.83
2019-05-17T18:40:46.892Z,5.58
2019-05-17T18:43:15.101Z,2.85
2019-05-17T18:45:43.323Z,3.15
2019-05-17T18:48:11.517Z,3.83
2019-05-17T18:50:39.716Z,3.95
2019-05-17T18:53:15.957Z,3.25
2019-05-17T18:55:37.870Z,2.52
2019-05-17T18:58:06.052Z,4.30
2019-05-17T19:00:34.336Z,4.40
2019-05-17T19:03:02.533Z,4.90
2019-05-17T19:05:30.747Z,5.90
2019-05-17T19:07:58.973Z,4.92
2019-05-17T19:10:27.221Z,3.80
2019-05-17T19:12:55.453Z,5.92
2019-05-17T19:15:23.654Z,4.62
2019-05-17T19:17:51.847Z,3.08
2019-05-17T19:20:20.094Z,3.42
2019-05-17T19:22:48.289Z,7.08
2019-05-17T19:25:17.355Z,6.03
2019-05-17T19:27:45.569Z,6.03
2019-05-17T19:30:15.405Z,5.30
2019-05-17T19:32:43.628Z,4.58
2019-05-17T19:35:11.852Z,4.55
2019-05-17T19:37:40.108Z,5.12
2019-05-17T19:40:09.176Z,3.98
2019-05-17T19:42:37.376Z,3.83
2019-05-17T19:45:08.670Z,3.55
2019-05-17T19:47:36.929Z,3.35
2019-05-17T19:50:06.830Z,3.77
2019-05-17T19:52:35.024Z,3.22
2019-05-17T19:55:04.277Z,4.72
2019-05-17T19:57:32.488Z,5.12
2019-05-17T20:00:00.781Z,3.22
2019-05-17T20:02:29.199Z,4.47
2019-05-17T20:04:57.388Z,7.00
2019-05-17T20:07:25.677Z,5.30
2019-05-17T20:09:53.933Z,4.03
2019-05-17T20:12:22.140Z,3.65
2019-05-17T20:14:50.341Z,4.22
2019-05-17T20:17:18.605Z,3.87
2019-05-17T20:19:46.872Z,3.35
2019-05-17T20:22:15.081Z,3.72
2019-05-17T20:24:43.299Z,4.00
2019-05-17T20:27:11.537Z,4.47
2019-05-17T20:29:39.770Z,5.25
2019-05-17T20:32:07.969Z,5.35
2019-05-17T20:34:36.176Z,4.95
2019-05-17T20:37:04.393Z,4.75
2019-05-17T20:39:32.630Z,5.42
2019-05-17T20:42:00.841Z,4.45
2019-05-17T20:44:29.041Z,4.03
2019-05-17T20:46:57.244Z,3.75
2019-05-17T20:49:25.453Z,5.10
2019-05-17T20:51:53.690Z,7.12
2019-05-17T20:54:21.901Z,5.33
2019-05-17T20:56:50.113Z,4.50
2019-05-17T20:59:18.317Z,6.50
2019-05-17T21:01:46.538Z,3.85
2019-05-17T21:04:14.836Z,5.00
2019-05-17T21:06:43.044Z,4.03
2019-05-17T21:09:11.285Z,5.20
2019-05-17T21:11:39.488Z,4.70
2019-05-17T21:14:07.692Z,5.35
2019-05-17T21:16:35.897Z,4.37
2019-05-17T21:19:04.206Z,5.22
2019-05-17T21:21:32.396Z,4.20
2019-05-17T21:24:00.641Z,4.97
2019-05-17T21:26:28.865Z,7.15
2019-05-17T21:28:57.060Z,4.70
2019-05-17T21:31:25.264Z,3.98
2019-05-17T21:33:53.472Z,4.85
2019-05-17T21:36:21.737Z,5.80
2019-05-17T21:38:50.022Z,6.42
2019-05-17T21:41:18.255Z,5.60
2019-05-17T21:43:46.495Z,6.17
2019-05-17T21:46:14.719Z,6.75
2019-05-17T21:48:42.923Z,6.05
2019-05-17T21:51:11.150Z,4.97
2019-05-17T21:53:39.387Z,6.72
2019-05-17T21:56:07.581Z,7.80
2019-05-17T21:58:35.796Z,7.17
2019-05-17T22:01:14.040Z,5.40
2019-05-17T22:03:42.241Z,5.67
2019-05-17T22:06:10.475Z,5.72
2019-05-17T22:08:38.715Z,6.58
2019-05-17T22:11:06.913Z,7.55
2019-05-17T22:13:35.142Z,6.17
2019-05-17T22:16:17.123Z,8.00
2019-05-17T22:18:33.296Z,6.15
2019-05-17T22:21:01.492Z,6.40
2019-05-17T22:23:29.726Z,8.35
2019-05-17T22:25:57.928Z,8.65
2019-05-17T22:28:26.126Z,8.48
2019-05-17T22:30:54.328Z,10.82
2019-05-17T22:33:22.543Z,9.10
2019-05-17T22:35:50.733Z,7.22
2019-05-17T22:38:18.973Z,9.33
2019-05-17T22:40:47.202Z,7.90
2019-05-17T22:43:15.392Z,7.92
2019-05-17T22:45:43.588Z,8.28
2019-05-17T22:48:11.827Z,6.90
2019-05-17T22:50:40.062Z,8.68
2019-05-17T22:53:08.256Z,7.05
2019-05-17T22:55:36.460Z,8.53
2019-05-17T22:58:04.665Z,8.30
2019-05-17T23:00:32.860Z,7.35
2019-05-17T23:03:01.150Z,9.18
2019-05-17T23:05:29.344Z,8.43
2019-05-17T23:07:57.549Z,6.70
2019-05-17T23:10:25.748Z,9.35
2019-05-17T23:12:53.959Z,10.03
2019-05-17T23:15:22.194Z,6.35
2019-05-17T23:17:50.391Z,7.67
2019-05-17T23:20:18.625Z,6.20
2019-05-17T23:22:46.824Z,9.10
2019-05-17T23:25:15.024Z,6.03
2019-05-17T23:27:43.232Z,7.60
2019-05-17T23:30:11.439Z,6.35
2019-05-17T23:32:39.632Z,6.25
2019-05-17T23:35:07.836Z,7.37
2019-05-17T23:37:36.066Z,8.08
2019-05-17T23:40:06.991Z,8.50
2019-05-17T23:42:35.184Z,9.63
2019-05-17T23:45:04.587Z,6.25
2019-05-17T23:47:32.785Z,6.62
2019-05-17T23:50:00.996Z,6.70
2019-05-17T23:52:29.234Z,5.92
2019-05-17T23:54:57.428Z,7.70
2019-05-17T23:57:25.719Z,8.55
2019-05-17T23:59:53.942Z,6.90
